Time;durP1;ratioP1;P1;durP2;ratioP2;P2;SDS_P1;SDS_P2;PMS_P1;PMS_P2;Temp;Humidity;BMP_temperature;BMP_pressure;BME280_temperature;BME280_humidity;BME280_pressure;Samples;Min_cycle;Max_cycle;Signal;HPM_P1;HPM_P2
2021/11/15 00:00:53;;;;;;;17.48;12.77;;;3.80;99.90;;;;;;4732558;30;20501;-83
2021/11/15 00:03:23;;;;;;;17.75;12.23;;;3.80;99.90;;;;;;4730558;30;20061;-83
2021/11/15 00:05:51;;;;;;;20.80;12.32;;;3.80;99.90;;;;;;4732326;30;20608;-83
2021/11/15 00:08:19;;;;;;;21.83;11.63;;;3.80;99.90;;;;;;4732972;30;20439;-83
2021/11/15 00:10:47;;;;;;;23.17;14.70;;;3.80;99.90;;;;;;4734088;30;20057;-82
2021/11/15 00:13:15;;;;;;;12.35;8.98;;;3.80;99.90;;;;;;4734626;30;20056;-82
2021/11/15 00:15:43;;;;;;;11.50;10.30;;;3.80;99.90;;;;;;4736304;30;20061;-83
2021/11/15 00:18:10;;;;;;;16.55;12.48;;;3.80;99.90;;;;;;4735119;30;20062;-83
2021/11/15 00:20:39;;;;;;;16.42;10.85;;;3.80;99.90;;;;;;4749842;30;20052;-83
2021/11/15 00:23:07;;;;;;;20.75;10.70;;;3.80;99.90;;;;;;4735957;30;20071;-83
2021/11/15 00:25:35;;;;;;;18.55;10.02;;;3.70;99.90;;;;;;4734665;30;20052;-82
2021/11/15 00:28:05;;;;;;;19.63;10.90;;;3.80;99.90;;;;;;4749059;30;20052;-83
2021/11/15 00:30:32;;;;;;;21.13;10.38;;;3.80;99.90;;;;;;4768693;30;20075;-83
2021/11/15 00:33:00;;;;;;;18.23;10.48;;;3.80;99.90;;;;;;4770858;30;20059;-83
2021/11/15 00:35:28;;;;;;;12.00;7.93;;;3.80;99.90;;;;;;4771030;29;20059;-82
2021/11/15 00:37:56;;;;;;;14.50;10.10;;;3.80;99.90;;;;;;4771051;29;20047;-83
2021/11/15 00:40:24;;;;;;;13.98;9.40;;;3.80;99.90;;;;;;4771250;30;20052;-83
2021/11/15 00:42:52;;;;;;;14.32;7.80;;;3.70;99.90;;;;;;4754700;30;20062;-83
2021/11/15 00:45:20;;;;;;;19.40;8.75;;;3.70;99.90;;;;;;4770702;29;20052;-83
2021/11/15 00:47:48;;;;;;;16.40;11.48;;;3.70;99.90;;;;;;4768144;30;20056;-83
2021/11/15 00:50:18;;;;;;;15.60;9.82;;;3.70;99.90;;;;;;4737373;30;20402;-83
2021/11/15 00:52:46;;;;;;;9.77;6.07;;;3.80;99.90;;;;;;4752831;30;20056;-83
2021/11/15 00:55:15;;;;;;;17.58;8.90;;;3.80;99.90;;;;;;4736895;30;20060;-83
2021/11/15 00:57:43;;;;;;;19.80;10.55;;;3.80;99.90;;;;;;4736945;30;20532;-83
2021/11/15 01:00:19;;;;;;;17.85;9.63;;;3.70;99.90;;;;;;4752951;30;20099;-83
2021/11/15 01:02:48;;;;;;;15.55;10.90;;;3.80;99.90;;;;;;4736505;30;20051;-83
2021/11/15 01:05:16;;;;;;;24.00;13.07;;;3.80;99.90;;;;;;4751374;30;20063;-82
2021/11/15 01:07:45;;;;;;;17.33;10.98;;;3.80;99.90;;;;;;4722832;30;20076;-83
2021/11/15 01:10:16;;;;;;;19.52;11.00;;;3.70;99.90;;;;;;4736466;30;20059;-83
2021/11/15 01:12:44;;;;;;;20.85;12.63;;;3.80;99.90;;;;;;4753060;30;20379;-83
2021/11/15 01:15:15;;;;;;;19.77;11.38;;;3.90;99.90;;;;;;4736498;30;20056;-83
2021/11/15 01:17:43;;;;;;;14.82;10.48;;;3.80;99.90;;;;;;4736170;30;20040;-83
2021/11/15 01:20:14;;;;;;;20.30;9.45;;;3.70;99.90;;;;;;4752527;30;20059;-83
2021/11/15 01:22:42;;;;;;;21.17;12.27;;;3.70;99.90;;;;;;4752662;30;20071;-83
2021/11/15 01:25:10;;;;;;;17.83;9.10;;;3.70;99.90;;;;;;4722059;30;20064;-83
2021/11/15 01:27:38;;;;;;;13.23;7.95;;;3.70;99.90;;;;;;4750634;30;20067;-83
2021/11/15 01:30:10;;;;;;;17.10;8.95;;;3.70;99.90;;;;;;4758741;30;20067;-83
2021/11/15 01:32:39;;;;;;;12.85;8.38;;;3.70;99.90;;;;;;4770384;30;20055;-83
2021/11/15 01:35:08;;;;;;;17.50;10.27;;;3.70;99.90;;;;;;4769965;29;20055;-83
2021/11/15 01:37:38;;;;;;;16.42;6.68;;;3.70;99.90;;;;;;4754219;29;20043;-83
2021/11/15 01:40:08;;;;;;;10.95;5.88;;;3.60;99.90;;;;;;4770505;30;20052;-83
2021/11/15 01:42:36;;;;;;;13.68;8.27;;;3.70;99.90;;;;;;4752194;30;20056;-83
2021/11/15 01:45:06;;;;;;;17.95;9.57;;;3.70;99.90;;;;;;4752517;30;20048;-83
2021/11/15 01:47:34;;;;;;;10.35;7.85;;;3.70;99.90;;;;;;4751855;30;20399;-83
2021/11/15 01:50:09;;;;;;;12.63;7.95;;;3.70;99.90;;;;;;4751574;30;20067;-83
2021/11/15 01:52:38;;;;;;;14.23;6.22;;;3.70;99.90;;;;;;4752595;30;20506;-83
2021/11/15 01:55:07;;;;;;;7.93;5.75;;;3.60;99.90;;;;;;4751838;30;20056;-83
2021/11/15 01:57:37;;;;;;;18.77;10.60;;;3.60;99.90;;;;;;4750925;30;20048;-83
2021/11/15 02:00:27;;;;;;;9.40;6.93;;;3.60;99.90;;;;;;4765646;30;20063;-83
2021/11/15 02:02:59;;;;;;;12.52;7.30;;;3.60;99.90;;;;;;4751435;30;20059;-83
2021/11/15 02:05:27;;;;;;;12.50;7.90;;;3.60;99.90;;;;;;4735753;30;20609;-83
2021/11/15 02:07:55;;;;;;;19.65;9.82;;;3.70;99.90;;;;;;4765868;30;20059;-83
2021/11/15 02:10:23;;;;;;;6.75;4.55;;;3.60;99.90;;;;;;4749666;30;20071;-83
2021/11/15 02:12:55;;;;;;;11.05;8.00;;;3.70;99.90;;;;;;4751829;30;20059;-83
2021/11/15 02:15:22;;;;;;;10.27;6.35;;;3.60;99.90;;;;;;4722226;29;20065;-83
2021/11/15 02:17:51;;;;;;;11.77;9.85;;;3.50;99.90;;;;;;4714641;30;20078;-82
2021/11/15 02:20:19;;;;;;;12.20;7.55;;;3.60;99.90;;;;;;4716597;30;20057;-83
2021/11/15 02:22:48;;;;;;;10.63;7.57;;;3.60;99.90;;;;;;4729503;30;20045;-83
2021/11/15 02:25:19;;;;;;;11.25;8.15;;;3.50;99.90;;;;;;4729501;30;20075;-82
2021/11/15 02:27:47;;;;;;;14.82;9.00;;;3.60;99.90;;;;;;4729640;30;20061;-83
2021/11/15 02:30:22;;;;;;;14.27;7.53;;;3.50;99.90;;;;;;4729835;30;20048;-83
2021/11/15 02:33:10;;;;;;;15.50;9.82;;;3.40;99.90;;;;;;4749608;30;20071;-83
2021/11/15 02:35:39;;;;;;;15.57;7.82;;;3.50;99.90;;;;;;4750646;30;20055;-84
2021/11/15 02:38:08;;;;;;;13.18;6.85;;;3.50;99.90;;;;;;4744306;30;20061;-83
2021/11/15 02:40:36;;;;;;;17.27;8.32;;;3.50;99.90;;;;;;4736024;30;20063;-83
2021/11/15 02:43:05;;;;;;;13.95;8.50;;;3.60;99.90;;;;;;4750806;30;20409;-83
2021/11/15 02:45:33;;;;;;;13.02;6.55;;;3.60;99.90;;;;;;4720672;30;20045;-83
2021/11/15 02:48:01;;;;;;;23.15;9.52;;;3.50;99.90;;;;;;4764485;30;20497;-83
2021/11/15 02:50:30;;;;;;;15.30;8.88;;;3.50;99.90;;;;;;4749240;30;20052;-83
2021/11/15 02:53:01;;;;;;;9.85;6.03;;;3.60;99.90;;;;;;4765040;30;20055;-83
2021/11/15 02:55:29;;;;;;;15.07;7.53;;;3.50;99.90;;;;;;4764060;30;20060;-83
2021/11/15 02:58:00;;;;;;;10.85;6.95;;;3.50;99.90;;;;;;4749124;30;20473;-82
2021/11/15 03:00:53;;;;;;;12.98;8.98;;;3.40;99.90;;;;;;4716969;30;20056;-83
2021/11/15 03:03:21;;;;;;;11.00;6.95;;;3.40;99.90;;;;;;4702201;30;20483;-82
2021/11/15 03:05:51;;;;;;;11.65;9.85;;;3.40;99.90;;;;;;4746822;30;20514;-82
2021/11/15 03:08:23;;;;;;;16.42;9.20;;;3.40;99.90;;;;;;4747223;30;20045;-83
2021/11/15 03:10:52;;;;;;;;;;;3.40;99.90;;;;;;4731845;30;20526;-83
2021/11/15 03:13:20;;;;;;;14.13;9.15;;;3.30;99.90;;;;;;4742477;30;19926;-82
2021/11/15 03:15:51;;;;;;;11.93;6.07;;;3.40;99.90;;;;;;4734981;30;20428;-82
2021/11/15 03:18:22;;;;;;;12.68;8.45;;;3.40;99.90;;;;;;4763465;29;20503;-82
2021/11/15 03:20:55;;;;;;;9.57;7.88;;;3.40;99.90;;;;;;4764020;30;20056;-83
2021/11/15 03:23:27;;;;;;;9.70;7.55;;;3.40;99.90;;;;;;4750439;30;20056;-83
2021/11/15 03:25:55;;;;;;;;;;;3.50;99.90;;;;;;4747549;30;20067;-83
2021/11/15 03:28:29;;;;;;;15.00;9.90;;;3.30;99.90;;;;;;4720198;30;19926;-83
2021/11/15 03:31:08;;;;;;;26.95;14.15;;;3.30;99.90;;;;;;4746823;30;20528;-83
2021/11/15 03:33:38;;;;;;;13.65;8.77;;;3.30;99.90;;;;;;4766290;30;20059;-82
2021/11/15 03:36:06;;;;;;;20.67;9.95;;;3.40;99.90;;;;;;4767203;30;20059;-83
2021/11/15 03:38:35;;;;;;;13.93;7.57;;;3.30;99.90;;;;;;4737321;30;20055;-83
2021/11/15 03:41:04;;;;;;;9.63;6.20;;;3.30;99.90;;;;;;4767162;30;20060;-83
2021/11/15 03:43:32;;;;;;;20.27;10.38;;;3.30;99.90;;;;;;4766256;30;20067;-83
2021/11/15 03:46:00;;;;;;;21.83;10.65;;;3.30;99.90;;;;;;4781456;29;20058;-83
2021/11/15 03:48:28;;;;;;;15.10;9.15;;;3.30;99.90;;;;;;4766361;30;20063;-82
2021/11/15 03:50:56;;;;;;;17.40;7.63;;;3.30;99.90;;;;;;4751366;30;20056;-83
2021/11/15 03:53:29;;;;;;;13.75;9.07;;;3.30;99.90;;;;;;4766584;29;20066;-82
2021/11/15 03:55:58;;;;;;;14.55;8.73;;;3.30;99.90;;;;;;4752137;30;20094;-83
2021/11/15 03:58:26;;;;;;;9.57;7.93;;;3.30;99.90;;;;;;4751578;30;20391;-83
2021/11/15 04:00:54;;;;;;;10.80;6.13;;;3.40;99.90;;;;;;4751781;30;20078;-83
2021/11/15 04:03:33;;;;;;;9.90;7.05;;;3.30;99.90;;;;;;4766940;29;20055;-83
2021/11/15 04:06:13;;;;;;;13.52;7.68;;;3.30;99.90;;;;;;4767907;29;20516;-82
2021/11/15 04:08:57;;;;;;;11.95;6.95;;;3.30;99.90;;;;;;4766763;30;20517;-83
2021/11/15 04:12:05;;;;;;;14.40;6.30;;;3.30;99.90;;;;;;4751006;30;20055;-83
2021/11/15 04:15:04;;;;;;;7.72;5.40;;;3.40;99.90;;;;;;4740793;30;20056;-83
2021/11/15 04:17:33;;;;;;;13.20;8.43;;;3.30;99.90;;;;;;4730841;30;20060;-83
2021/11/15 04:20:03;;;;;;;12.30;6.65;;;3.30;99.90;;;;;;4731772;30;20059;-83
2021/11/15 04:22:31;;;;;;;10.02;7.18;;;3.30;99.90;;;;;;4732463;30;20056;-83
2021/11/15 04:24:59;;;;;;;8.75;4.55;;;3.20;99.90;;;;;;4732546;30;20060;-83
2021/11/15 04:27:31;;;;;;;10.32;7.60;;;3.30;99.90;;;;;;4746484;30;20396;-83
2021/11/15 04:30:12;;;;;;;8.80;5.15;;;3.30;99.90;;;;;;4724736;30;20054;-83
2021/11/15 04:33:16;;;;;;;10.15;7.15;;;3.30;99.90;;;;;;4751808;30;20047;-83
2021/11/15 04:36:18;;;;;;;6.38;4.72;;;3.30;99.90;;;;;;4762807;30;20526;-83
2021/11/15 04:39:03;;;;;;;4.03;3.20;;;3.30;99.90;;;;;;4749770;30;20055;-82
2021/11/15 04:41:31;;;;;;;6.57;4.53;;;3.30;99.90;;;;;;4733505;30;20056;-82
2021/11/15 04:43:58;;;;;;;11.68;8.68;;;3.30;99.90;;;;;;4763793;30;20079;-83
2021/11/15 04:46:26;;;;;;;10.25;5.20;;;3.30;99.90;;;;;;4733686;30;20414;-83
2021/11/15 04:48:54;;;;;;;8.55;5.63;;;3.30;99.90;;;;;;4730798;30;20052;-82
2021/11/15 04:51:21;;;;;;;8.65;6.30;;;3.20;99.90;;;;;;4730351;30;20052;-83
2021/11/15 04:53:49;;;;;;;10.68;5.22;;;3.20;99.90;;;;;;4730697;30;20506;-83
2021/11/15 04:56:17;;;;;;;8.05;5.20;;;3.20;99.90;;;;;;4734349;30;20068;-83
2021/11/15 04:58:45;;;;;;;13.98;6.00;;;3.30;99.90;;;;;;4733743;30;20060;-83
2021/11/15 05:01:13;;;;;;;15.93;7.57;;;3.30;99.90;;;;;;4719145;30;20057;-82
2021/11/15 05:03:40;;;;;;;10.23;5.20;;;3.30;99.90;;;;;;4748267;30;20063;-83
2021/11/15 05:06:08;;;;;;;11.45;6.05;;;3.40;99.90;;;;;;4748676;30;20045;-83
2021/11/15 05:08:36;;;;;;;9.25;7.82;;;3.30;99.90;;;;;;4748911;30;20064;-83
2021/11/15 05:11:04;;;;;;;11.20;6.55;;;3.40;99.90;;;;;;4733770;30;20415;-83
2021/11/15 05:13:32;;;;;;;8.50;6.88;;;3.30;99.90;;;;;;4748122;30;20406;-83
2021/11/15 05:16:00;;;;;;;8.10;5.72;;;3.30;99.90;;;;;;4734042;30;20071;-83
2021/11/15 05:18:27;;;;;;;12.13;5.82;;;3.30;99.90;;;;;;4732625;30;20060;-83
2021/11/15 05:20:55;;;;;;;11.38;7.28;;;3.40;99.90;;;;;;4733843;30;20060;-83
2021/11/15 05:23:24;;;;;;;7.72;6.40;;;3.30;99.90;;;;;;4734849;30;20060;-83
2021/11/15 05:25:51;;;;;;;10.27;6.35;;;3.30;99.90;;;;;;4728687;30;20051;-83
2021/11/15 05:28:20;;;;;;;10.15;6.78;;;3.40;99.90;;;;;;4733765;30;20063;-83
2021/11/15 05:30:48;;;;;;;10.70;5.78;;;3.30;99.90;;;;;;4741502;30;20395;-83
2021/11/15 05:33:16;;;;;;;6.70;4.55;;;3.20;99.90;;;;;;4768195;29;20421;-82
2021/11/15 05:35:44;;;;;;;11.88;8.60;;;3.20;99.90;;;;;;4770688;30;20056;-82
2021/11/15 05:38:12;;;;;;;8.13;6.63;;;3.20;99.90;;;;;;4783575;29;20051;-83
2021/11/15 05:40:39;;;;;;;8.95;5.78;;;3.20;99.90;;;;;;4769089;30;20414;-83
2021/11/15 05:43:07;;;;;;;11.70;5.82;;;3.20;99.90;;;;;;4783415;29;20774;-83
2021/11/15 05:45:35;;;;;;;7.40;5.38;;;3.20;99.90;;;;;;4769744;29;20413;-83
2021/11/15 05:48:04;;;;;;;9.65;5.80;;;3.20;99.90;;;;;;4768438;30;20078;-83
2021/11/15 05:50:31;;;;;;;9.07;7.97;;;3.20;99.90;;;;;;4753379;30;20056;-82
2021/11/15 05:53:00;;;;;;;11.55;6.93;;;3.20;99.90;;;;;;4770113;30;20066;-82
2021/11/15 05:55:28;;;;;;;9.50;6.38;;;3.20;99.90;;;;;;4769520;29;20517;-81
2021/11/15 05:57:56;;;;;;;7.18;5.47;;;3.20;99.90;;;;;;4768081;30;20059;-82
2021/11/15 06:00:26;;;;;;;7.00;4.60;;;3.20;99.90;;;;;;4769787;30;20055;-84
2021/11/15 06:02:55;;;;;;;4.55;3.15;;;3.30;99.90;;;;;;4767954;29;20509;-83
2021/11/15 06:05:24;;;;;;;5.57;4.30;;;3.20;99.90;;;;;;4753532;29;20055;-81
2021/11/15 06:07:52;;;;;;;8.30;4.43;;;3.10;99.90;;;;;;4767847;30;20052;-83
2021/11/15 06:10:21;;;;;;;7.63;5.00;;;3.10;99.90;;;;;;4767993;29;20048;-82
2021/11/15 06:12:50;;;;;;;8.73;6.30;;;3.10;99.90;;;;;;4753903;30;20067;-82
2021/11/15 06:15:21;;;;;;;4.35;3.67;;;3.20;99.90;;;;;;4739159;30;20049;-81
2021/11/15 06:17:53;;;;;;;9.10;6.05;;;3.20;99.90;;;;;;4717493;30;20052;-81
2021/11/15 06:20:23;;;;;;;9.48;6.72;;;3.20;99.90;;;;;;4718077;30;20056;-82
2021/11/15 06:22:51;;;;;;;6.68;5.00;;;3.20;99.90;;;;;;4732181;30;20053;-83
2021/11/15 06:25:19;;;;;;;9.02;5.95;;;3.20;99.90;;;;;;4747135;30;20510;-81
2021/11/15 06:27:50;;;;;;;7.82;5.18;;;3.20;99.90;;;;;;4747222;30;20045;-81
2021/11/15 06:30:20;;;;;;;11.75;7.78;;;3.20;99.90;;;;;;4747723;30;20059;-82
2021/11/15 06:32:48;;;;;;;11.23;8.60;;;3.20;99.90;;;;;;4733793;30;20384;-80
2021/11/15 06:35:16;;;;;;;8.25;4.88;;;3.10;99.90;;;;;;4749479;29;20059;-79
2021/11/15 06:37:45;;;;;;;8.13;5.40;;;3.10;99.90;;;;;;4763564;30;20056;-82
2021/11/15 06:40:15;;;;;;;5.97;5.47;;;3.10;99.90;;;;;;4749402;30;20060;-82
2021/11/15 06:42:44;;;;;;;6.60;4.95;;;3.20;99.90;;;;;;4734911;30;20063;-81
2021/11/15 06:45:12;;;;;;;8.25;6.97;;;3.10;99.90;;;;;;4743670;29;20068;-81
2021/11/15 06:47:41;;;;;;;6.75;4.65;;;3.10;99.90;;;;;;4771963;30;20052;-82
2021/11/15 06:50:13;;;;;;;7.32;5.22;;;3.10;99.90;;;;;;4742667;30;20056;-82
2021/11/15 06:52:41;;;;;;;;;;;3.20;99.90;;;;;;4760584;30;20044;-82
2021/11/15 06:55:10;;;;;;;7.95;7.25;;;3.10;99.90;;;;;;4758033;29;19932;-82
2021/11/15 06:57:40;;;;;;;10.32;6.28;;;3.10;99.90;;;;;;4758485;30;20047;-81
2021/11/15 07:00:11;;;;;;;7.80;6.18;;;3.10;99.90;;;;;;4743515;30;20060;-82
2021/11/15 07:02:40;;;;;;;8.18;5.43;;;3.10;99.90;;;;;;4756606;30;20063;-82
2021/11/15 07:05:11;;;;;;;10.00;6.45;;;3.10;99.90;;;;;;4745103;30;20066;-82
2021/11/15 07:07:38;;;;;;;8.90;6.25;;;3.10;99.90;;;;;;4741887;30;20044;-82
2021/11/15 07:10:08;;;;;;;7.38;5.45;;;3.10;99.90;;;;;;4757799;30;20066;-78
2021/11/15 07:12:36;;;;;;;11.52;6.18;;;3.20;99.90;;;;;;4760399;30;20078;-78
2021/11/15 07:15:08;;;;;;;10.43;5.82;;;3.20;99.90;;;;;;4758348;29;20053;-78
2021/11/15 07:17:36;;;;;;;12.07;8.95;;;3.20;99.90;;;;;;4757686;29;20597;-78
2021/11/15 07:20:05;;;;;;;9.98;7.10;;;3.20;99.90;;;;;;4757764;30;20050;-82
2021/11/15 07:22:34;;;;;;;12.55;6.13;;;3.20;99.90;;;;;;4761177;29;20065;-82
2021/11/15 07:25:03;;;;;;;11.60;5.82;;;3.10;99.90;;;;;;4756988;30;20052;-82
2021/11/15 07:27:31;;;;;;;6.85;5.32;;;3.10;99.90;;;;;;4758870;29;20549;-82
2021/11/15 07:29:59;;;;;;;12.50;5.88;;;3.20;99.90;;;;;;4742218;30;20058;-83
2021/11/15 07:32:27;;;;;;;7.05;5.07;;;3.20;99.90;;;;;;4744021;30;20085;-83
2021/11/15 07:35:00;;;;;;;8.35;5.85;;;3.10;99.90;;;;;;4743229;30;20056;-83
2021/11/15 07:37:29;;;;;;;10.50;5.13;;;3.20;99.90;;;;;;4756864;30;20064;-82
2021/11/15 07:39:56;;;;;;;11.70;7.53;;;3.20;99.90;;;;;;4740136;30;20067;-83
2021/11/15 07:42:25;;;;;;;10.10;6.40;;;3.20;99.90;;;;;;4757859;29;20052;-83
2021/11/15 07:44:54;;;;;;;10.10;5.65;;;3.30;99.90;;;;;;4744401;30;20046;-83
2021/11/15 07:47:22;;;;;;;9.27;6.00;;;3.20;99.90;;;;;;4744808;30;20494;-83
2021/11/15 07:49:50;;;;;;;10.15;7.22;;;3.20;99.90;;;;;;4772649;29;20040;-82
2021/11/15 07:52:19;;;;;;;16.90;9.65;;;3.20;99.90;;;;;;4725386;30;20047;-82
2021/11/15 07:54:48;;;;;;;10.07;7.47;;;3.20;99.90;;;;;;4772824;29;20058;-83
2021/11/15 07:57:16;;;;;;;12.70;7.93;;;3.20;99.90;;;;;;4742769;29;20077;-82
2021/11/15 07:59:45;;;;;;;5.32;3.33;;;3.10;99.90;;;;;;4768654;30;20059;-82
2021/11/15 08:02:14;;;;;;;18.20;8.15;;;3.30;99.90;;;;;;4749754;29;20422;-84
2021/11/15 08:04:42;;;;;;;13.88;9.30;;;3.30;99.90;;;;;;4734248;30;20056;-81
2021/11/15 08:07:10;;;;;;;9.85;7.95;;;3.20;99.90;;;;;;4748355;30;20048;-81
2021/11/15 08:09:39;;;;;;;21.67;8.63;;;3.30;99.90;;;;;;4746273;30;20056;-82
2021/11/15 08:12:10;;;;;;;11.90;7.10;;;3.20;99.90;;;;;;4752248;30;20063;-81
2021/11/15 08:14:40;;;;;;;17.03;10.43;;;3.20;99.90;;;;;;4734113;30;20048;-80
2021/11/15 08:17:10;;;;;;;15.38;8.68;;;3.20;99.90;;;;;;4766665;30;20058;-80
2021/11/15 08:19:40;;;;;;;;;;;3.20;99.90;;;;;;4766646;30;20055;-81
2021/11/15 08:22:08;;;;;;;10.20;7.07;;;3.20;99.90;;;;;;4767303;29;19937;-81
2021/11/15 08:25:03;;;;;;;13.07;7.55;;;3.20;99.90;;;;;;4781708;30;20051;-82
2021/11/15 08:27:31;;;;;;;11.73;9.98;;;3.30;99.90;;;;;;4752127;30;20048;-81
2021/11/15 08:29:59;;;;;;;7.90;5.60;;;3.10;99.90;;;;;;4753749;30;20047;-81
2021/11/15 08:32:27;;;;;;;8.93;5.85;;;3.20;99.90;;;;;;4767302;30;20063;-81
2021/11/15 08:34:58;;;;;;;7.50;6.00;;;3.10;99.90;;;;;;4749585;30;20048;-81
2021/11/15 08:37:26;;;;;;;10.60;8.10;;;3.10;99.90;;;;;;4750711;30;20048;-81
2021/11/15 08:39:54;;;;;;;10.43;8.50;;;3.30;99.90;;;;;;4753246;30;20056;-82
2021/11/15 08:42:22;;;;;;;10.82;7.00;;;3.20;99.90;;;;;;4748541;29;20052;-82
2021/11/15 08:44:57;;;;;;;8.57;7.50;;;3.20;99.90;;;;;;4752452;30;20388;-78
2021/11/15 08:47:25;;;;;;;14.65;8.85;;;3.30;99.90;;;;;;4752592;30;20084;-79
2021/11/15 08:49:54;;;;;;;8.98;5.78;;;3.30;99.90;;;;;;4734508;30;20411;-78
2021/11/15 08:52:22;;;;;;;14.60;8.77;;;3.30;99.90;;;;;;4748745;30;20045;-79
2021/11/15 08:54:51;;;;;;;10.38;5.63;;;3.40;99.90;;;;;;4719041;30;20517;-81
2021/11/15 08:57:19;;;;;;;9.23;5.75;;;3.40;99.90;;;;;;4745873;30;20062;-78
2021/11/15 08:59:48;;;;;;;5.25;4.75;;;3.40;99.90;;;;;;4757406;30;20044;-79
2021/11/15 09:02:16;;;;;;;9.07;6.25;;;3.40;99.90;;;;;;4759667;29;20048;-79
2021/11/15 09:04:44;;;;;;;8.57;5.80;;;3.40;99.90;;;;;;4751040;30;20059;-79
2021/11/15 09:07:12;;;;;;;16.23;10.40;;;3.40;99.90;;;;;;4762792;30;20044;-79
2021/11/15 09:09:40;;;;;;;13.50;7.97;;;3.40;99.90;;;;;;4752907;30;20043;-79
2021/11/15 09:12:09;;;;;;;12.77;7.32;;;3.30;99.90;;;;;;4755353;30;20060;-80
2021/11/15 09:14:39;;;;;;;6.75;5.32;;;3.50;99.90;;;;;;4764918;29;20048;-76
2021/11/15 09:17:08;;;;;;;9.50;7.35;;;3.40;99.90;;;;;;4772530;30;20529;-76
2021/11/15 09:19:38;;;;;;;11.73;8.15;;;3.50;99.90;;;;;;4742738;30;20044;-77
2021/11/15 09:22:06;;;;;;;12.07;9.02;;;3.60;99.90;;;;;;4737181;30;20055;-81
2021/11/15 09:24:34;;;;;;;12.10;5.35;;;3.60;99.90;;;;;;4761838;30;20063;-82
2021/11/15 09:27:02;;;;;;;9.85;5.18;;;3.60;99.90;;;;;;4755626;30;20075;-80
2021/11/15 09:29:30;;;;;;;8.20;6.15;;;3.70;99.90;;;;;;4758836;30;20052;-83
2021/11/15 09:31:58;;;;;;;11.07;6.10;;;3.70;99.90;;;;;;4769507;30;20071;-81
2021/11/15 09:34:26;;;;;;;8.93;7.80;;;3.60;99.90;;;;;;4756398;29;20418;-82
2021/11/15 09:36:54;;;;;;;11.77;6.68;;;3.70;99.90;;;;;;4760898;30;20059;-82
2021/11/15 09:39:23;;;;;;;11.57;7.35;;;3.80;99.90;;;;;;4757088;30;20067;-82
2021/11/15 09:41:51;;;;;;;10.32;4.85;;;3.80;99.90;;;;;;4757001;30;20049;-81
2021/11/15 09:44:19;;;;;;;12.38;6.85;;;3.80;99.90;;;;;;4760014;30;20048;-78
2021/11/15 09:46:47;;;;;;;11.90;7.80;;;3.70;99.90;;;;;;4757758;30;20048;-78
2021/11/15 09:49:15;;;;;;;11.48;6.70;;;3.70;99.90;;;;;;4758771;30;20052;-78
2021/11/15 09:51:45;;;;;;;9.93;7.53;;;3.70;99.90;;;;;;4762071;30;20059;-78
2021/11/15 09:54:13;;;;;;;8.10;5.10;;;3.80;99.90;;;;;;4760530;30;20060;-77
2021/11/15 09:56:42;;;;;;;10.52;6.60;;;3.90;99.90;;;;;;4759612;30;20079;-78
2021/11/15 09:59:13;;;;;;;6.82;5.00;;;3.80;99.90;;;;;;4750451;30;20430;-78
2021/11/15 10:01:48;;;;;;;9.57;6.13;;;3.90;99.90;;;;;;4764982;30;20055;-78
2021/11/15 10:04:18;;;;;;;8.10;6.07;;;3.90;99.90;;;;;;4737640;30;20075;-78
2021/11/15 10:06:48;;;;;;;7.50;4.35;;;3.90;99.90;;;;;;4766417;29;20052;-77
2021/11/15 10:09:27;;;;;;;10.15;6.30;;;4.00;99.90;;;;;;4759814;29;20075;-84
2021/11/15 10:12:06;;;;;;;10.70;8.48;;;4.00;99.90;;;;;;4760689;30;20063;-86
2021/11/15 10:14:34;;;;;;;18.02;8.90;;;3.90;99.90;;;;;;4757610;29;20052;-85
2021/11/15 10:17:02;;;;;;;11.50;7.95;;;3.80;99.90;;;;;;4743251;30;20060;-85
2021/11/15 10:19:32;;;;;;;12.15;6.63;;;3.90;99.90;;;;;;4773145;30;20464;-85
2021/11/15 10:22:04;;;;;;;10.00;6.75;;;3.90;99.90;;;;;;4759346;29;20063;-85
2021/11/15 10:24:36;;;;;;;10.23;6.82;;;3.80;99.90;;;;;;4743646;30;20065;-85
2021/11/15 10:27:07;;;;;;;6.18;4.35;;;3.80;99.90;;;;;;4742909;30;20040;-85
2021/11/15 10:29:48;;;;;;;13.80;7.10;;;3.80;99.90;;;;;;4743643;30;20051;-85
2021/11/15 10:32:28;;;;;;;7.67;5.90;;;3.70;99.90;;;;;;4758396;30;20051;-85
2021/11/15 10:34:59;;;;;;;9.48;6.07;;;3.60;99.90;;;;;;4759004;29;20054;-85
2021/11/15 10:37:28;;;;;;;7.95;7.20;;;3.60;99.90;;;;;;4773855;29;20052;-85
2021/11/15 10:40:09;;;;;;;8.73;5.20;;;3.60;99.90;;;;;;4773201;30;20056;-85
2021/11/15 10:42:38;;;;;;;13.48;8.50;;;3.60;99.90;;;;;;4759445;29;20044;-85
2021/11/15 10:45:12;;;;;;;10.38;7.10;;;3.60;99.90;;;;;;4742713;30;20063;-85
2021/11/15 10:47:54;;;;;;;11.05;6.47;;;3.70;99.90;;;;;;4754211;30;20056;-85
2021/11/15 10:50:42;;;;;;;11.77;7.93;;;3.80;99.90;;;;;;4757045;30;20059;-85
2021/11/15 10:53:27;;;;;;;6.22;4.55;;;3.80;99.90;;;;;;4742286;30;20059;-85
2021/11/15 10:56:15;;;;;;;8.70;7.43;;;4.00;99.90;;;;;;4757111;30;20052;-85
2021/11/15 10:58:45;;;;;;;13.07;6.05;;;3.90;99.90;;;;;;4755944;29;20051;-85
2021/11/15 11:01:14;;;;;;;13.40;7.80;;;3.90;99.90;;;;;;4771056;29;20043;-85
2021/11/15 11:03:42;;;;;;;12.88;7.25;;;4.00;99.90;;;;;;4758859;30;20043;-85
2021/11/15 11:06:13;;;;;;;10.30;7.75;;;3.90;99.90;;;;;;4741851;30;20050;-85
2021/11/15 11:08:46;;;;;;;5.80;4.80;;;3.90;99.90;;;;;;4758175;30;20052;-84
2021/11/15 11:11:26;;;;;;;12.80;8.73;;;4.00;99.90;;;;;;4756614;29;20056;-84
2021/11/15 11:14:02;;;;;;;14.38;7.90;;;4.10;99.90;;;;;;4760912;30;20044;-85
2021/11/15 11:16:40;;;;;;;13.85;9.20;;;4.20;99.90;;;;;;4756628;30;20470;-85
2021/11/15 11:19:17;;;;;;;14.02;7.90;;;4.20;99.90;;;;;;4743077;30;20546;-84
2021/11/15 11:22:08;;;;;;;10.07;6.97;;;4.20;99.90;;;;;;4741457;29;20053;-84
2021/11/15 11:24:41;;;;;;;15.65;9.32;;;4.20;99.90;;;;;;4759454;30;20493;-84
2021/11/15 11:27:15;;;;;;;9.98;6.63;;;4.20;99.90;;;;;;4741386;30;20055;-84
2021/11/15 11:29:52;;;;;;;14.65;10.50;;;4.30;99.90;;;;;;4745151;30;20040;-84
2021/11/15 11:32:24;;;;;;;14.82;8.77;;;4.40;99.90;;;;;;4774132;29;20044;-85
2021/11/15 11:34:56;;;;;;;13.77;8.02;;;4.40;99.90;;;;;;4732975;30;21714;-84
2021/11/15 11:37:27;;;;;;;8.82;7.50;;;4.40;99.90;;;;;;4764358;30;20055;-86
2021/11/15 11:39:59;;;;;;;12.38;8.32;;;4.40;99.90;;;;;;4757282;30;20052;-84
2021/11/15 11:42:27;;;;;;;10.60;8.10;;;4.40;99.90;;;;;;4742601;30;20052;-82
2021/11/15 11:44:56;;;;;;;11.82;8.00;;;4.30;99.90;;;;;;4771248;30;20056;-82
2021/11/15 11:47:27;;;;;;;15.50;9.32;;;4.40;99.90;;;;;;4746080;30;20043;-82
2021/11/15 11:49:59;;;;;;;343.10;210.65;;;4.40;99.90;;;;;;4737047;30;20054;-83
2021/11/15 11:52:30;;;;;;;20.50;10.13;;;4.40;99.90;;;;;;4775187;30;20059;-83
2021/11/15 11:54:58;;;;;;;9.68;6.30;;;4.40;99.90;;;;;;4759065;30;20050;-84
2021/11/15 11:57:31;;;;;;;15.07;10.82;;;4.40;99.90;;;;;;4745316;29;20588;-84
2021/11/15 11:59:59;;;;;;;20.45;10.40;;;4.40;99.90;;;;;;4774260;30;20040;-84
2021/11/15 12:02:30;;;;;;;13.77;9.35;;;4.40;99.90;;;;;;4759788;30;20417;-83
2021/11/15 12:05:04;;;;;;;14.25;8.00;;;4.50;99.90;;;;;;4770802;29;20066;-84
2021/11/15 12:07:38;;;;;;;9.70;6.38;;;4.60;99.90;;;;;;4729973;30;20051;-84
2021/11/15 12:10:14;;;;;;;11.70;8.55;;;4.50;99.90;;;;;;4774238;30;20069;-85
2021/11/15 12:13:15;;;;;;;15.98;10.18;;;4.50;99.90;;;;;;4745469;30;20072;-88
2021/11/15 12:15:52;;;;;;;14.20;11.80;;;4.50;99.90;;;;;;4773065;30;20047;-86
2021/11/15 12:18:32;;;;;;;24.15;16.67;;;4.50;99.90;;;;;;4759399;30;20052;-84
2021/11/15 12:21:02;;;;;;;16.33;9.95;;;4.60;99.90;;;;;;4759141;30;20055;-84
2021/11/15 12:23:39;;;;;;;18.95;9.88;;;4.50;99.90;;;;;;4760691;30;20048;-84
2021/11/15 12:26:15;;;;;;;16.75;11.23;;;4.50;99.90;;;;;;4772661;30;20115;-86
2021/11/15 12:28:47;;;;;;;19.85;12.85;;;4.50;99.90;;;;;;4761749;30;20052;-87
2021/11/15 12:31:37;;;;;;;16.38;10.95;;;4.40;99.90;;;;;;4774080;29;20063;-84
2021/11/15 12:34:06;;;;;;;23.05;11.15;;;4.40;99.90;;;;;;4730717;30;20054;-81
2021/11/15 12:36:40;;;;;;;16.73;11.50;;;4.40;99.90;;;;;;4758183;30;20052;-81
2021/11/15 12:39:11;;;;;;;24.80;12.18;;;4.50;99.90;;;;;;4761267;30;20055;-81
2021/11/15 12:41:41;;;;;;;;;;;4.50;99.90;;;;;;4775530;30;20047;-83
2021/11/15 12:44:21;;;;;;;26.25;16.23;;;4.50;99.90;;;;;;4758735;30;19934;-82
2021/11/15 12:46:50;;;;;;;20.58;15.88;;;4.60;99.90;;;;;;4774419;30;20048;-82
2021/11/15 12:49:40;;;;;;;22.90;13.18;;;4.50;99.90;;;;;;4769418;30;20047;-81
2021/11/15 12:54:45;;;;;;;17.33;10.93;;;4.50;99.90;;;;;;4759679;30;20052;-84
2021/11/15 12:57:16;;;;;;;16.13;10.80;;;4.50;99.90;;;;;;4744487;30;20062;-86
2021/11/15 12:59:54;;;;;;;21.08;9.70;;;4.60;99.90;;;;;;4760551;30;20051;-87
2021/11/15 13:02:23;;;;;;;21.85;12.23;;;4.50;99.90;;;;;;4745617;30;20074;-83
2021/11/15 13:04:52;;;;;;;18.10;9.88;;;4.40;99.90;;;;;;4730482;30;20053;-83
2021/11/15 13:07:24;;;;;;;21.25;10.90;;;4.50;99.90;;;;;;4741148;30;20063;-83
2021/11/15 13:09:54;;;;;;;14.98;10.13;;;4.50;99.90;;;;;;4759732;30;20044;-86
2021/11/15 13:12:25;;;;;;;12.60;8.32;;;4.50;99.90;;;;;;4761596;30;20075;-86